sensor_id;sensor_type;location;lat;lon;timestamp;temperature;humidity
52439;DHT22;73188;52.948;6.012;2024-02-16T00:03:00;17.20;99.90
52439;DHT22;73188;52.948;6.012;2024-02-16T00:13:26;17.20;99.90
52439;DHT22;73188;52.948;6.012;2024-02-16T00:23:51;17.20;99.90
52439;DHT22;73188;52.948;6.012;2024-02-16T00:34:17;16.90;99.90
52439;DHT22;73188;52.948;6.012;2024-02-16T00:44:43;17.00;99.90
52439;DHT22;73188;52.948;6.012;2024-02-16T00:55:09;17.10;99.90
52439;DHT22;73188;52.948;6.012;2024-02-16T01:05:35;16.90;99.90
52439;DHT22;73188;52.948;6.012;2024-02-16T01:16:02;16.80;99.90
52439;DHT22;73188;52.948;6.012;2024-02-16T01:26:28;16.70;99.90
52439;DHT22;73188;52.948;6.012;2024-02-16T01:36:55;16.90;99.90
52439;DHT22;73188;52.948;6.012;2024-02-16T01:47:20;16.60;99.90
52439;DHT22;73188;52.948;6.012;2024-02-16T01:57:47;16.70;99.90
52439;DHT22;73188;52.948;6.012;2024-02-16T02:08:14;16.80;99.90
52439;DHT22;73188;52.948;6.012;2024-02-16T02:18:40;16.80;99.90
52439;DHT22;73188;52.948;6.012;2024-02-16T02:29:06;16.70;99.90
52439;DHT22;73188;52.948;6.012;2024-02-16T02:39:32;17.20;99.90
52439;DHT22;73188;52.948;6.012;2024-02-16T02:49:58;16.60;99.90
52439;DHT22;73188;52.948;6.012;2024-02-16T03:00:24;16.40;99.90
52439;DHT22;73188;52.948;6.012;2024-02-16T03:10:51;16.50;99.90
52439;DHT22;73188;52.948;6.012;2024-02-16T03:21:17;16.80;99.90
52439;DHT22;73188;52.948;6.012;2024-02-16T03:31:43;16.60;99.90
52439;DHT22;73188;52.948;6.012;2024-02-16T03:42:08;16.50;99.90
52439;DHT22;73188;52.948;6.012;2024-02-16T03:52:35;16.70;99.90
52439;DHT22;73188;52.948;6.012;2024-02-16T04:03:00;16.60;99.90
52439;DHT22;73188;52.948;6.012;2024-02-16T04:13:26;16.50;99.90
52439;DHT22;73188;52.948;6.012;2024-02-16T04:23:52;16.50;99.90
52439;DHT22;73188;52.948;6.012;2024-02-16T04:34:18;16.90;99.90
52439;DHT22;73188;52.948;6.012;2024-02-16T04:44:44;16.70;99.90
52439;DHT22;73188;52.948;6.012;2024-02-16T04:55:09;16.50;99.90
52439;DHT22;73188;52.948;6.012;2024-02-16T05:05:35;16.30;99.90
52439;DHT22;73188;52.948;6.012;2024-02-16T05:16:01;16.30;99.90
52439;DHT22;73188;52.948;6.012;2024-02-16T05:26:27;16.20;99.90
52439;DHT22;73188;52.948;6.012;2024-02-16T05:36:52;16.30;99.90
52439;DHT22;73188;52.948;6.012;2024-02-16T05:47:19;16.60;99.90
52439;DHT22;73188;52.948;6.012;2024-02-16T05:57:44;16.10;99.90
52439;DHT22;73188;52.948;6.012;2024-02-16T06:08:11;16.10;99.90
52439;DHT22;73188;52.948;6.012;2024-02-16T06:18:37;16.10;99.90
52439;DHT22;73188;52.948;6.012;2024-02-16T06:29:03;16.10;99.90
52439;DHT22;73188;52.948;6.012;2024-02-16T06:39:29;16.10;99.90
52439;DHT22;73188;52.948;6.012;2024-02-16T06:49:56;15.90;99.90
52439;DHT22;73188;52.948;6.012;2024-02-16T07:00:22;15.90;99.90
52439;DHT22;73188;52.948;6.012;2024-02-16T07:10:48;15.80;99.90
52439;DHT22;73188;52.948;6.012;2024-02-16T07:21:16;15.80;99.90
52439;DHT22;73188;52.948;6.012;2024-02-16T07:31:44;15.90;99.90
52439;DHT22;73188;52.948;6.012;2024-02-16T07:42:10;16.00;99.90
52439;DHT22;73188;52.948;6.012;2024-02-16T07:52:38;16.20;99.90
52439;DHT22;73188;52.948;6.012;2024-02-16T08:03:05;16.50;99.90
52439;DHT22;73188;52.948;6.012;2024-02-16T08:13:31;16.60;99.90
52439;DHT22;73188;52.948;6.012;2024-02-16T08:23:56;16.60;99.90
52439;DHT22;73188;52.948;6.012;2024-02-16T08:34:22;16.80;99.90
52439;DHT22;73188;52.948;6.012;2024-02-16T08:44:48;16.70;99.90
52439;DHT22;73188;52.948;6.012;2024-02-16T08:55:15;17.30;99.90
52439;DHT22;73188;52.948;6.012;2024-02-16T09:05:41;17.40;99.90
52439;DHT22;73188;52.948;6.012;2024-02-16T09:16:09;17.80;99.90
52439;DHT22;73188;52.948;6.012;2024-02-16T09:26:35;17.90;99.90
52439;DHT22;73188;52.948;6.012;2024-02-16T09:37:00;18.60;99.90
52439;DHT22;73188;52.948;6.012;2024-02-16T09:47:27;18.90;99.90
52439;DHT22;73188;52.948;6.012;2024-02-16T09:57:58;18.70;99.90
52439;DHT22;73188;52.948;6.012;2024-02-16T10:08:25;18.30;99.90
52439;DHT22;73188;52.948;6.012;2024-02-16T10:18:51;18.10;99.90
52439;DHT22;73188;52.948;6.012;2024-02-16T10:29:18;17.90;99.90
52439;DHT22;73188;52.948;6.012;2024-02-16T10:39:45;17.70;99.90
52439;DHT22;73188;52.948;6.012;2024-02-16T10:50:13;17.50;99.90
52439;DHT22;73188;52.948;6.012;2024-02-16T11:00:49;17.80;99.90
52439;DHT22;73188;52.948;6.012;2024-02-16T11:11:24;17.50;99.90
52439;DHT22;73188;52.948;6.012;2024-02-16T11:22:02;17.30;99.90
52439;DHT22;73188;52.948;6.012;2024-02-16T11:32:33;17.10;99.90
52439;DHT22;73188;52.948;6.012;2024-02-16T11:43:00;17.40;99.90
52439;DHT22;73188;52.948;6.012;2024-02-16T11:53:26;17.90;99.90
52439;DHT22;73188;52.948;6.012;2024-02-16T12:03:53;18.10;99.90
52439;DHT22;73188;52.948;6.012;2024-02-16T12:14:21;18.30;99.90
52439;DHT22;73188;52.948;6.012;2024-02-16T12:24:48;18.60;99.90
52439;DHT22;73188;52.948;6.012;2024-02-16T12:35:15;18.70;99.90
52439;DHT22;73188;52.948;6.012;2024-02-16T12:45:42;18.80;99.90
52439;DHT22;73188;52.948;6.012;2024-02-16T12:56:08;19.10;99.90
52439;DHT22;73188;52.948;6.012;2024-02-16T13:06:34;19.40;99.90
52439;DHT22;73188;52.948;6.012;2024-02-16T13:17:01;19.20;99.90
52439;DHT22;73188;52.948;6.012;2024-02-16T13:27:27;19.10;99.90
52439;DHT22;73188;52.948;6.012;2024-02-16T13:37:53;19.10;99.90
52439;DHT22;73188;52.948;6.012;2024-02-16T13:48:19;19.60;99.90
52439;DHT22;73188;52.948;6.012;2024-02-16T13:58:45;19.30;99.90
52439;DHT22;73188;52.948;6.012;2024-02-16T14:09:12;19.80;99.90
52439;DHT22;73188;52.948;6.012;2024-02-16T14:19:39;19.50;99.90
52439;DHT22;73188;52.948;6.012;2024-02-16T14:30:05;19.20;99.90
52439;DHT22;73188;52.948;6.012;2024-02-16T14:40:33;19.20;99.90
52439;DHT22;73188;52.948;6.012;2024-02-16T14:50:59;19.30;99.90
52439;DHT22;73188;52.948;6.012;2024-02-16T15:01:25;19.40;99.90
52439;DHT22;73188;52.948;6.012;2024-02-16T15:11:52;19.40;99.90
52439;DHT22;73188;52.948;6.012;2024-02-16T15:22:17;19.50;99.90
52439;DHT22;73188;52.948;6.012;2024-02-16T15:32:43;19.50;99.90
52439;DHT22;73188;52.948;6.012;2024-02-16T15:43:09;19.70;99.90
52439;DHT22;73188;52.948;6.012;2024-02-16T15:53:37;19.70;99.90
52439;DHT22;73188;52.948;6.012;2024-02-16T16:04:03;19.90;99.90
52439;DHT22;73188;52.948;6.012;2024-02-16T16:14:29;19.70;99.90
52439;DHT22;73188;52.948;6.012;2024-02-16T16:24:54;19.60;99.90
52439;DHT22;73188;52.948;6.012;2024-02-16T16:35:20;19.50;99.90
52439;DHT22;73188;52.948;6.012;2024-02-16T16:45:47;19.30;99.90
52439;DHT22;73188;52.948;6.012;2024-02-16T16:56:13;19.40;99.90
52439;DHT22;73188;52.948;6.012;2024-02-16T17:06:39;19.00;99.90
52439;DHT22;73188;52.948;6.012;2024-02-16T17:17:05;19.10;99.90
52439;DHT22;73188;52.948;6.012;2024-02-16T17:27:31;19.20;99.90
52439;DHT22;73188;52.948;6.012;2024-02-16T17:37:57;19.20;99.90
52439;DHT22;73188;52.948;6.012;2024-02-16T17:48:23;18.60;99.90
52439;DHT22;73188;52.948;6.012;2024-02-16T17:58:52;18.60;99.90
52439;DHT22;73188;52.948;6.012;2024-02-16T18:09:18;18.60;99.90
52439;DHT22;73188;52.948;6.012;2024-02-16T18:19:44;18.30;99.90
52439;DHT22;73188;52.948;6.012;2024-02-16T18:30:10;18.30;99.90
52439;DHT22;73188;52.948;6.012;2024-02-16T18:40:37;18.20;99.90
52439;DHT22;73188;52.948;6.012;2024-02-16T18:51:03;18.10;99.90
52439;DHT22;73188;52.948;6.012;2024-02-16T19:01:29;18.00;99.90
52439;DHT22;73188;52.948;6.012;2024-02-16T19:11:57;18.10;99.90
52439;DHT22;73188;52.948;6.012;2024-02-16T19:22:23;18.00;99.90
52439;DHT22;73188;52.948;6.012;2024-02-16T19:32:49;17.90;99.90
52439;DHT22;73188;52.948;6.012;2024-02-16T19:43:15;17.70;99.90
52439;DHT22;73188;52.948;6.012;2024-02-16T19:53:44;17.40;99.90
52439;DHT22;73188;52.948;6.012;2024-02-16T20:04:10;17.00;99.90
52439;DHT22;73188;52.948;6.012;2024-02-16T20:14:35;17.00;99.90
52439;DHT22;73188;52.948;6.012;2024-02-16T20:25:02;16.80;99.90
52439;DHT22;73188;52.948;6.012;2024-02-16T20:35:31;16.60;99.90
52439;DHT22;73188;52.948;6.012;2024-02-16T20:45:57;16.90;99.90
52439;DHT22;73188;52.948;6.012;2024-02-16T20:56:23;16.90;99.90
52439;DHT22;73188;52.948;6.012;2024-02-16T21:06:49;16.70;99.90
52439;DHT22;73188;52.948;6.012;2024-02-16T21:17:15;16.60;99.90
52439;DHT22;73188;52.948;6.012;2024-02-16T21:27:40;16.70;99.90
52439;DHT22;73188;52.948;6.012;2024-02-16T21:38:06;16.70;99.90
52439;DHT22;73188;52.948;6.012;2024-02-16T21:48:32;17.10;99.90
52439;DHT22;73188;52.948;6.012;2024-02-16T21:58:58;16.90;99.90
52439;DHT22;73188;52.948;6.012;2024-02-16T22:09:25;16.90;99.90
52439;DHT22;73188;52.948;6.012;2024-02-16T22:19:51;17.20;99.90
52439;DHT22;73188;52.948;6.012;2024-02-16T22:30:17;16.80;99.90
52439;DHT22;73188;52.948;6.012;2024-02-16T22:40:42;16.80;99.90
52439;DHT22;73188;52.948;6.012;2024-02-16T22:51:08;16.50;99.90
52439;DHT22;73188;52.948;6.012;2024-02-16T23:01:35;16.20;99.90
52439;DHT22;73188;52.948;6.012;2024-02-16T23:12:02;16.10;99.90
52439;DHT22;73188;52.948;6.012;2024-02-16T23:22:28;16.10;99.90
52439;DHT22;73188;52.948;6.012;2024-02-16T23:32:54;16.20;99.90
52439;DHT22;73188;52.948;6.012;2024-02-16T23:43:20;16.40;99.90
52439;DHT22;73188;52.948;6.012;2024-02-16T23:53:46;16.10;99.90
